Time;durP1;ratioP1;P1;durP2;ratioP2;P2;SDS_P1;SDS_P2;PMS_P1;PMS_P2;Temp;Humidity;BMP_temperature;BMP_pressure;BME280_temperature;BME280_humidity;BME280_pressure;Samples;Min_cycle;Max_cycle;Signal;HPM_P1;HPM_P2
2024/01/06 00:04:11;;;;;;;122.63;42.87;;;;;;;;;;10146494;29;20350;-80
2024/01/06 00:09:12;;;;;;;158.03;47.43;;;;;;;;;;10150619;29;20441;-79
2024/01/06 00:14:13;;;;;;;132.07;41.50;;;;;;;;;;10115732;23;20113;-80
2024/01/06 00:19:14;;;;;;;117.20;42.53;;;;;;;;;;10085999;29;20739;-80
2024/01/06 00:24:15;;;;;;;167.60;51.07;;;;;;;;;;10094179;29;20037;-80
2024/01/06 00:29:16;;;;;;;179.37;46.57;;;;;;;;;;10091344;29;20107;-82
2024/01/06 00:34:17;;;;;;;163.17;47.37;;;;;;;;;;10093189;29;20116;-82
2024/01/06 00:39:24;;;;;;;121.17;41.90;;;;;;;;;;10083571;29;20498;-81
2024/01/06 00:44:25;;;;;;;123.40;44.77;;;;;;;;;;10074691;29;20599;-79
2024/01/06 00:49:26;;;;;;;178.73;51.60;;;;;;;;;;10089647;29;20060;-82
2024/01/06 00:54:34;;;;;;;105.83;39.57;;;;;;;;;;10082575;29;20063;-80
2024/01/06 00:59:35;;;;;;;233.20;68.77;;;;;;;;;;10128399;29;20115;-80
2024/01/06 01:04:36;;;;;;;108.90;43.17;;;;;;;;;;10127005;29;20041;-80
2024/01/06 01:09:37;;;;;;;127.63;46.73;;;;;;;;;;10109132;29;20059;-83
2024/01/06 01:14:38;;;;;;;155.20;50.90;;;;;;;;;;10124952;29;20067;-82
2024/01/06 01:19:46;;;;;;;184.43;59.17;;;;;;;;;;10130673;29;20028;-80
2024/01/06 01:24:47;;;;;;;123.77;49.23;;;;;;;;;;10126044;29;20497;-82
2024/01/06 01:29:52;;;;;;;99.90;42.27;;;;;;;;;;10126130;29;20031;-81
2024/01/06 01:34:53;;;;;;;129.33;49.40;;;;;;;;;;10104710;29;20052;-79
2024/01/06 01:39:54;;;;;;;118.07;45.90;;;;;;;;;;10129838;29;20124;-83
2024/01/06 01:45:02;;;;;;;109.13;44.30;;;;;;;;;;10124967;29;20627;-80
2024/01/06 01:50:03;;;;;;;111.30;44.00;;;;;;;;;;10127518;29;20095;-79
2024/01/06 01:55:11;;;;;;;115.33;46.60;;;;;;;;;;10116390;29;20084;-83
2024/01/06 02:00:13;;;;;;;113.77;45.77;;;;;;;;;;10123730;29;20032;-80
2024/01/06 02:05:14;;;;;;;103.23;40.87;;;;;;;;;;10109230;29;20046;-80
2024/01/06 02:10:15;;;;;;;108.63;45.13;;;;;;;;;;10120739;29;20491;-82
2024/01/06 02:15:16;;;;;;;93.30;40.23;;;;;;;;;;10117954;29;20067;-80
2024/01/06 02:20:19;;;;;;;112.37;45.63;;;;;;;;;;10127759;29;20144;-80
2024/01/06 02:25:20;;;;;;;110.53;43.90;;;;;;;;;;10124434;29;20532;-80
2024/01/06 02:30:21;;;;;;;101.30;40.23;;;;;;;;;;10125764;29;20123;-80
2024/01/06 02:35:22;;;;;;;109.00;42.80;;;;;;;;;;10110596;29;20049;-79
2024/01/06 02:40:23;;;;;;;108.30;41.43;;;;;;;;;;10119117;29;20063;-80
2024/01/06 02:45:24;;;;;;;118.30;43.53;;;;;;;;;;10118100;29;20040;-82
2024/01/06 02:50:25;;;;;;;117.13;44.07;;;;;;;;;;10121458;29;20040;-83
2024/01/06 02:55:26;;;;;;;100.30;39.80;;;;;;;;;;10126778;29;20401;-82
2024/01/06 03:00:27;;;;;;;87.07;36.00;;;;;;;;;;10123124;29;20037;-80
2024/01/06 03:05:28;;;;;;;113.60;43.70;;;;;;;;;;10126770;29;20036;-80
2024/01/06 03:10:29;;;;;;;88.33;37.93;;;;;;;;;;10120323;29;20131;-81
2024/01/06 03:15:30;;;;;;;118.37;44.13;;;;;;;;;;10111617;29;20071;-81
2024/01/06 03:20:31;;;;;;;104.70;42.30;;;;;;;;;;10102901;29;20032;-83
2024/01/06 03:25:32;;;;;;;108.00;43.87;;;;;;;;;;10118835;29;20108;-83
2024/01/06 03:30:33;;;;;;;104.67;42.63;;;;;;;;;;10117042;29;20488;-80
2024/01/06 03:35:34;;;;;;;116.57;45.73;;;;;;;;;;10115189;29;20040;-79
2024/01/06 03:40:35;;;;;;;97.60;39.97;;;;;;;;;;10125163;29;20037;-80
2024/01/06 03:45:36;;;;;;;100.97;41.13;;;;;;;;;;10092319;29;20037;-80
2024/01/06 03:50:37;;;;;;;105.00;44.03;;;;;;;;;;10125943;29;20047;-80
2024/01/06 03:55:38;;;;;;;100.77;42.13;;;;;;;;;;10123530;29;20051;-80
2024/01/06 04:00:39;;;;;;;102.00;40.73;;;;;;;;;;10132502;29;20033;-80
2024/01/06 04:05:40;;;;;;;102.90;42.47;;;;;;;;;;10131870;29;20040;-81
2024/01/06 04:10:41;;;;;;;98.03;42.17;;;;;;;;;;10127438;29;20043;-83
2024/01/06 04:15:43;;;;;;;100.13;40.43;;;;;;;;;;10129562;29;20152;-79
2024/01/06 04:20:44;;;;;;;97.43;40.37;;;;;;;;;;10131377;29;20032;-81
2024/01/06 04:25:45;;;;;;;100.33;42.37;;;;;;;;;;10118456;29;20396;-79
2024/01/06 04:30:46;;;;;;;99.87;41.50;;;;;;;;;;10131414;29;20044;-82
2024/01/06 04:35:47;;;;;;;92.87;39.70;;;;;;;;;;10128242;29;20536;-81
2024/01/06 04:40:48;;;;;;;114.80;44.00;;;;;;;;;;10115310;29;20374;-80
2024/01/06 04:45:50;;;;;;;107.53;41.77;;;;;;;;;;10130373;29;20059;-80
2024/01/06 04:50:51;;;;;;;87.70;37.17;;;;;;;;;;10128837;29;20385;-79
2024/01/06 04:55:52;;;;;;;86.03;37.87;;;;;;;;;;10119258;29;20055;-83
2024/01/06 05:00:53;;;;;;;101.23;43.20;;;;;;;;;;10123611;29;20032;-79
2024/01/06 05:05:54;;;;;;;73.30;33.40;;;;;;;;;;10122315;29;20043;-79
2024/01/06 05:10:55;;;;;;;94.23;41.20;;;;;;;;;;10126783;29;20038;-83
2024/01/06 05:15:56;;;;;;;88.73;37.40;;;;;;;;;;10121808;29;20060;-80
2024/01/06 05:20:57;;;;;;;89.33;41.37;;;;;;;;;;10115840;29;20403;-79
2024/01/06 05:25:58;;;;;;;107.47;44.00;;;;;;;;;;10125825;29;20725;-80
2024/01/06 05:30:59;;;;;;;71.17;32.63;;;;;;;;;;10126591;29;20029;-80
2024/01/06 05:36:00;;;;;;;78.23;35.13;;;;;;;;;;10111020;29;20044;-78
2024/01/06 05:41:02;;;;;;;91.90;43.30;;;;;;;;;;10121147;29;20036;-79
2024/01/06 05:46:03;;;;;;;99.67;46.70;;;;;;;;;;10114337;29;20041;-82
2024/01/06 05:51:07;;;;;;;105.07;46.13;;;;;;;;;;10116873;29;20036;-82
2024/01/06 05:56:09;;;;;;;114.50;49.50;;;;;;;;;;10127618;29;20085;-80
2024/01/06 06:01:10;;;;;;;80.20;35.53;;;;;;;;;;10116497;29;20032;-83
2024/01/06 06:06:11;;;;;;;84.77;38.57;;;;;;;;;;10129043;29;20032;-80
2024/01/06 06:11:12;;;;;;;119.43;44.47;;;;;;;;;;10122328;29;20028;-80
2024/01/06 06:16:13;;;;;;;89.87;40.80;;;;;;;;;;10128959;29;20064;-81
2024/01/06 06:21:14;;;;;;;101.87;44.77;;;;;;;;;;10126916;29;20027;-81
2024/01/06 06:26:15;;;;;;;87.10;39.03;;;;;;;;;;10123893;29;20647;-82
2024/01/06 06:31:16;;;;;;;84.67;38.27;;;;;;;;;;10128593;29;20116;-82
2024/01/06 06:36:17;;;;;;;104.90;43.53;;;;;;;;;;10123637;29;20426;-79
2024/01/06 06:41:25;;;;;;;79.87;36.77;;;;;;;;;;10115287;29;20081;-80
2024/01/06 06:46:26;;;;;;;98.30;40.17;;;;;;;;;;10125998;29;20072;-82
2024/01/06 06:51:27;;;;;;;78.43;36.20;;;;;;;;;;10121747;29;20037;-80
2024/01/06 06:56:28;;;;;;;88.33;39.87;;;;;;;;;;10126838;29;20119;-81
2024/01/06 07:01:30;;;;;;;89.80;41.47;;;;;;;;;;10122818;29;20496;-80
2024/01/06 07:06:31;;;;;;;103.93;46.97;;;;;;;;;;10125833;29;20037;-81
2024/01/06 07:11:32;;;;;;;100.77;48.70;;;;;;;;;;10126181;29;20035;-80
2024/01/06 07:16:40;;;;;;;110.73;48.93;;;;;;;;;;10117899;29;20068;-79
2024/01/06 07:21:41;;;;;;;100.47;46.67;;;;;;;;;;10125389;29;20551;-79
2024/01/06 07:26:42;;;;;;;93.40;42.73;;;;;;;;;;10125011;29;20492;-81
2024/01/06 07:31:43;;;;;;;85.13;39.67;;;;;;;;;;10116895;29;20025;-80
2024/01/06 07:36:44;;;;;;;91.40;40.80;;;;;;;;;;10113034;29;20580;-82
2024/01/06 07:41:46;;;;;;;118.73;53.97;;;;;;;;;;10125150;29;20025;-82
2024/01/06 07:46:54;;;;;;;131.57;70.43;;;;;;;;;;10113604;29;20036;-84
2024/01/06 07:51:55;;;;;;;157.93;78.27;;;;;;;;;;10124069;29;20052;-81
2024/01/06 07:56:57;;;;;;;129.50;68.27;;;;;;;;;;10121744;29;20068;-80
2024/01/06 08:02:05;;;;;;;204.70;93.23;;;;;;;;;;10121025;29;20070;-82
2024/01/06 08:07:07;;;;;;;258.73;119.53;;;;;;;;;;10117611;29;20036;-81
2024/01/06 08:12:09;;;;;;;262.37;115.07;;;;;;;;;;10112812;29;20088;-81
2024/01/06 08:17:11;;;;;;;140.50;67.97;;;;;;;;;;10123222;29;20508;-81
2024/01/06 08:22:12;;;;;;;107.50;51.93;;;;;;;;;;10115962;29;20111;-82
2024/01/06 08:27:14;;;;;;;97.20;46.83;;;;;;;;;;10124362;29;20040;-81
2024/01/06 08:32:16;;;;;;;119.83;53.50;;;;;;;;;;10096850;29;20039;-82
2024/01/06 08:37:17;;;;;;;114.30;56.57;;;;;;;;;;10120064;29;20040;-82
2024/01/06 08:42:19;;;;;;;149.10;70.10;;;;;;;;;;10121871;29;20041;-83
2024/01/06 08:47:20;;;;;;;155.37;73.73;;;;;;;;;;10119758;29;20467;-81
2024/01/06 08:52:21;;;;;;;126.37;61.57;;;;;;;;;;10118182;29;20041;-84
2024/01/06 08:57:23;;;;;;;141.43;65.03;;;;;;;;;;10114347;29;20100;-81
2024/01/06 09:02:24;;;;;;;124.90;61.27;;;;;;;;;;10126891;29;20123;-84
2024/01/06 09:07:26;;;;;;;118.53;56.90;;;;;;;;;;10104919;29;20132;-83
2024/01/06 09:12:29;;;;;;;134.93;67.30;;;;;;;;;;10115381;29;20484;-82
2024/01/06 09:17:31;;;;;;;140.33;69.80;;;;;;;;;;10110352;29;20056;-83
2024/01/06 09:22:32;;;;;;;149.10;71.67;;;;;;;;;;10099591;29;20041;-82
2024/01/06 09:27:34;;;;;;;126.93;62.13;;;;;;;;;;10119367;29;20025;-82
2024/01/06 09:32:35;;;;;;;129.93;62.70;;;;;;;;;;10120798;29;20051;-84
2024/01/06 09:37:37;;;;;;;122.37;58.77;;;;;;;;;;10127918;29;20517;-84
2024/01/06 09:42:38;;;;;;;132.47;63.53;;;;;;;;;;10112051;29;20029;-81
2024/01/06 09:47:41;;;;;;;128.70;65.10;;;;;;;;;;10114354;29;20405;-84
2024/01/06 09:52:43;;;;;;;137.53;66.90;;;;;;;;;;10122963;29;20040;-82
2024/01/06 09:57:45;;;;;;;142.70;68.40;;;;;;;;;;10117359;29;20048;-82
2024/01/06 10:02:48;;;;;;;138.87;68.00;;;;;;;;;;10120415;29;20371;-82
2024/01/06 10:07:49;;;;;;;136.83;66.00;;;;;;;;;;10125392;29;20032;-82
2024/01/06 10:12:54;;;;;;;122.57;58.53;;;;;;;;;;10126810;29;20037;-82
2024/01/06 10:17:55;;;;;;;136.20;65.17;;;;;;;;;;10109831;29;20056;-82
2024/01/06 10:22:56;;;;;;;136.30;62.77;;;;;;;;;;10118320;29;20060;-84
2024/01/06 10:28:05;;;;;;;131.73;61.87;;;;;;;;;;10125509;29;20060;-83
2024/01/06 10:33:13;;;;;;;146.80;66.57;;;;;;;;;;10124327;29;20836;-85
2024/01/06 10:38:15;;;;;;;143.30;63.33;;;;;;;;;;10115365;29;20541;-82
2024/01/06 10:43:16;;;;;;;136.10;64.80;;;;;;;;;;10119662;29;20061;-84
2024/01/06 10:48:19;;;;;;;137.17;61.30;;;;;;;;;;10117982;29;20394;-82
2024/01/06 10:53:22;;;;;;;141.40;65.67;;;;;;;;;;10117576;29;20044;-82
2024/01/06 10:58:23;;;;;;;153.17;67.63;;;;;;;;;;10109063;29;20061;-85
2024/01/06 11:03:25;;;;;;;148.97;66.33;;;;;;;;;;10108434;29;20062;-81
2024/01/06 11:08:34;;;;;;;131.77;59.33;;;;;;;;;;10125241;29;20167;-83
2024/01/06 11:13:36;;;;;;;137.30;60.70;;;;;;;;;;10124765;29;20466;-81
2024/01/06 11:18:45;;;;;;;133.13;58.53;;;;;;;;;;9816925;29;8036870;-81
2024/01/06 11:23:46;;;;;;;135.00;61.33;;;;;;;;;;10078517;29;20029;-82
2024/01/06 11:28:48;;;;;;;157.97;65.87;;;;;;;;;;10083176;29;20056;-85
2024/01/06 11:33:51;;;;;;;132.23;56.30;;;;;;;;;;10069962;29;20123;-84
2024/01/06 11:38:52;;;;;;;120.27;53.93;;;;;;;;;;10088528;29;20032;-81
2024/01/06 11:43:54;;;;;;;124.63;54.40;;;;;;;;;;10080670;29;20034;-83
2024/01/06 11:48:55;;;;;;;129.10;58.23;;;;;;;;;;10063030;29;20036;-83
2024/01/06 11:53:57;;;;;;;118.03;53.00;;;;;;;;;;10070382;29;20084;-81
2024/01/06 11:58:58;;;;;;;126.80;57.87;;;;;;;;;;10088108;29;20075;-85
2024/01/06 12:03:59;;;;;;;110.57;50.50;;;;;;;;;;10086099;29;20105;-86
2024/01/06 12:09:15;;;;;;;134.10;56.40;;;;;;;;;;10086125;29;20033;-82
2024/01/06 12:14:16;;;;;;;125.00;53.40;;;;;;;;;;10076829;29;20056;-84
2024/01/06 12:19:24;;;;;;;118.73;51.13;;;;;;;;;;10133450;29;20071;-81
2024/01/06 12:24:28;;;;;;;114.73;51.10;;;;;;;;;;10136046;29;20499;-84
2024/01/06 12:29:30;;;;;;;113.33;52.40;;;;;;;;;;10124384;29;20499;-83
2024/01/06 12:34:48;;;;;;;110.93;47.67;;;;;;;;;;10123508;29;20041;-84
2024/01/06 12:39:49;;;;;;;112.63;47.43;;;;;;;;;;10114401;29;20036;-83
2024/01/06 12:44:56;;;;;;;107.37;46.53;;;;;;;;;;10124273;29;20035;-82
2024/01/06 12:49:57;;;;;;;91.93;41.43;;;;;;;;;;10129419;29;20037;-81
2024/01/06 12:55:06;;;;;;;95.70;41.57;;;;;;;;;;10099646;29;20052;-81
2024/01/06 13:00:10;;;;;;;92.20;38.23;;;;;;;;;;10123602;29;20604;-83
2024/01/06 13:05:12;;;;;;;93.07;40.13;;;;;;;;;;10125212;29;20139;-82
2024/01/06 13:10:13;;;;;;;82.97;37.97;;;;;;;;;;10123496;29;20370;-81
2024/01/06 13:15:14;;;;;;;75.23;34.03;;;;;;;;;;10105172;29;20072;-84
2024/01/06 13:20:16;;;;;;;76.90;34.53;;;;;;;;;;10101648;29;20123;-84
2024/01/06 13:25:19;;;;;;;71.67;33.67;;;;;;;;;;10120532;29;20147;-84
2024/01/06 13:30:21;;;;;;;75.63;33.63;;;;;;;;;;10124757;29;20041;-84
2024/01/06 13:35:24;;;;;;;78.63;35.10;;;;;;;;;;10128545;29;20366;-82
2024/01/06 13:40:26;;;;;;;74.20;31.40;;;;;;;;;;10123504;29;20172;-81
2024/01/06 13:45:27;;;;;;;71.27;32.87;;;;;;;;;;10120994;29;20532;-84
2024/01/06 13:50:28;;;;;;;77.07;34.20;;;;;;;;;;10129655;29;20037;-84
2024/01/06 13:55:29;;;;;;;69.63;32.27;;;;;;;;;;10125351;29;20041;-84
2024/01/06 14:00:30;;;;;;;72.33;34.17;;;;;;;;;;10117458;29;20811;-83
2024/01/06 14:05:32;;;;;;;73.33;33.43;;;;;;;;;;10110917;29;20040;-81
2024/01/06 14:10:39;;;;;;;73.30;33.87;;;;;;;;;;10126385;29;20040;-84
2024/01/06 14:15:40;;;;;;;70.17;33.47;;;;;;;;;;10121160;29;20135;-84
2024/01/06 14:20:41;;;;;;;65.77;31.07;;;;;;;;;;10098354;29;20040;-84
2024/01/06 14:25:43;;;;;;;73.53;32.77;;;;;;;;;;10125875;29;20389;-83
2024/01/06 14:30:44;;;;;;;73.67;34.43;;;;;;;;;;10142841;23;20067;-84
2024/01/06 14:35:45;;;;;;;65.83;34.53;;;;;;;;;;10106430;29;20041;-83
2024/01/06 14:40:47;;;;;;;66.33;30.33;;;;;;;;;;10102842;29;20040;-83
2024/01/06 14:45:48;;;;;;;85.03;35.50;;;;;;;;;;10106142;29;20420;-81
2024/01/06 14:50:50;;;;;;;77.00;33.07;;;;;;;;;;10140890;29;20032;-82
2024/01/06 14:55:51;;;;;;;70.30;29.77;;;;;;;;;;10143496;23;20636;-84
2024/01/06 15:00:52;;;;;;;70.70;29.63;;;;;;;;;;10112594;29;20116;-84
2024/01/06 15:05:53;;;;;;;61.90;28.07;;;;;;;;;;10118574;29;20041;-81
2024/01/06 15:11:02;;;;;;;61.43;26.13;;;;;;;;;;10120413;29;20036;-83
2024/01/06 15:16:03;;;;;;;65.27;29.10;;;;;;;;;;10121747;29;20471;-86
2024/01/06 15:21:05;;;;;;;62.00;27.97;;;;;;;;;;10117610;29;20037;-84
2024/01/06 15:26:06;;;;;;;61.23;27.40;;;;;;;;;;10153253;29;20032;-82
2024/01/06 15:31:07;;;;;;;66.23;30.27;;;;;;;;;;10156084;29;20062;-86
2024/01/06 15:36:11;;;;;;;58.20;26.63;;;;;;;;;;10120033;29;20080;-85
2024/01/06 15:41:12;;;;;;;58.47;26.23;;;;;;;;;;10117071;29;20123;-83
2024/01/06 15:46:15;;;;;;;61.67;28.00;;;;;;;;;;10125207;29;20032;-86
2024/01/06 15:51:16;;;;;;;58.33;27.53;;;;;;;;;;10115392;29;20041;-84
2024/01/06 15:56:17;;;;;;;61.60;26.57;;;;;;;;;;10115777;29;20071;-83
2024/01/06 16:01:19;;;;;;;59.83;27.30;;;;;;;;;;10118501;29;20444;-85
2024/01/06 16:06:20;;;;;;;67.60;29.67;;;;;;;;;;10134872;29;20044;-84
2024/01/06 16:11:21;;;;;;;65.60;26.63;;;;;;;;;;10107227;29;20056;-85
2024/01/06 16:16:22;;;;;;;61.97;28.37;;;;;;;;;;10113337;29;20516;-84
2024/01/06 16:21:24;;;;;;;54.23;24.27;;;;;;;;;;10135516;29;20038;-83
2024/01/06 16:26:25;;;;;;;74.43;34.50;;;;;;;;;;10120839;29;20032;-85
2024/01/06 16:31:27;;;;;;;61.00;28.07;;;;;;;;;;10112655;29;20032;-82
2024/01/06 16:36:28;;;;;;;55.63;26.20;;;;;;;;;;10123053;29;20068;-83
2024/01/06 16:41:29;;;;;;;59.57;24.97;;;;;;;;;;10106594;29;20028;-83
2024/01/06 16:46:30;;;;;;;53.80;22.30;;;;;;;;;;10106756;29;20047;-82
2024/01/06 16:51:31;;;;;;;56.17;24.27;;;;;;;;;;10104118;29;20110;-83
2024/01/06 16:56:32;;;;;;;55.50;22.07;;;;;;;;;;10096166;29;20061;-82
2024/01/06 17:01:33;;;;;;;59.57;25.37;;;;;;;;;;10124232;29;20028;-81
2024/01/06 17:06:40;;;;;;;59.40;23.30;;;;;;;;;;10123292;29;20037;-83
2024/01/06 17:11:42;;;;;;;61.73;23.93;;;;;;;;;;10115537;29;20040;-82
2024/01/06 17:16:43;;;;;;;52.57;22.57;;;;;;;;;;10106278;29;20041;-80
2024/01/06 17:21:44;;;;;;;57.03;23.33;;;;;;;;;;10114337;29;20108;-80
2024/01/06 17:26:46;;;;;;;57.00;24.10;;;;;;;;;;10129895;29;20099;-80
2024/01/06 17:31:47;;;;;;;64.53;24.97;;;;;;;;;;10103025;29;20512;-79
2024/01/06 17:36:48;;;;;;;56.83;23.10;;;;;;;;;;10132344;29;20059;-81
2024/01/06 17:41:49;;;;;;;57.50;21.97;;;;;;;;;;10102629;29;20289;-82
2024/01/06 17:46:50;;;;;;;49.40;20.20;;;;;;;;;;10101650;29;20041;-82
2024/01/06 17:51:51;;;;;;;48.20;20.43;;;;;;;;;;10130841;29;20040;-79
2024/01/06 17:56:53;;;;;;;56.23;23.60;;;;;;;;;;10129819;29;20056;-79
2024/01/06 18:01:54;;;;;;;53.77;23.03;;;;;;;;;;10116500;29;20137;-82
2024/01/06 18:06:55;;;;;;;49.80;21.17;;;;;;;;;;10121360;29;20101;-80
2024/01/06 18:11:56;;;;;;;53.50;23.60;;;;;;;;;;10129054;29;20504;-81
2024/01/06 18:16:57;;;;;;;50.27;21.47;;;;;;;;;;10122535;29;20052;-81
2024/01/06 18:21:58;;;;;;;43.43;19.27;;;;;;;;;;10100914;29;20041;-80
2024/01/06 18:26:59;;;;;;;41.13;19.70;;;;;;;;;;10135341;29;20528;-79
2024/01/06 18:32:00;;;;;;;40.90;19.67;;;;;;;;;;10110919;29;20046;-85
2024/01/06 18:37:01;;;;;;;42.93;20.37;;;;;;;;;;10123153;29;20050;-83
2024/01/06 18:42:02;;;;;;;39.93;19.17;;;;;;;;;;10108176;29;20037;-84
2024/01/06 18:47:08;;;;;;;35.07;16.97;;;;;;;;;;10107239;29;20039;-82
2024/01/06 18:52:10;;;;;;;34.83;16.00;;;;;;;;;;10111950;29;20045;-80
2024/01/06 18:57:13;;;;;;;41.33;17.53;;;;;;;;;;10096935;29;20088;-80
2024/01/06 19:02:15;;;;;;;37.90;19.07;;;;;;;;;;10119581;29;20043;-84
2024/01/06 19:07:16;;;;;;;39.60;17.93;;;;;;;;;;10117278;29;20056;-82
2024/01/06 19:12:17;;;;;;;35.57;16.73;;;;;;;;;;10131229;29;20092;-83
2024/01/06 19:17:19;;;;;;;39.23;17.77;;;;;;;;;;10123854;29;20045;-81
2024/01/06 19:22:22;;;;;;;34.37;16.70;;;;;;;;;;10114511;29;20607;-80
2024/01/06 19:27:23;;;;;;;36.13;17.10;;;;;;;;;;10118034;29;20040;-81
2024/01/06 19:32:25;;;;;;;43.50;21.00;;;;;;;;;;10119110;29;20032;-80
2024/01/06 19:37:26;;;;;;;37.97;18.57;;;;;;;;;;10126050;29;20074;-80
2024/01/06 19:42:27;;;;;;;42.30;18.87;;;;;;;;;;10107701;29;20144;-80
2024/01/06 19:47:34;;;;;;;40.50;19.23;;;;;;;;;;10108512;29;20024;-82
2024/01/06 19:52:36;;;;;;;42.03;20.10;;;;;;;;;;10120440;29;20043;-80
2024/01/06 19:57:37;;;;;;;43.40;19.77;;;;;;;;;;10103406;29;20095;-80
2024/01/06 20:02:38;;;;;;;38.20;18.37;;;;;;;;;;10102037;29;20040;-80
2024/01/06 20:07:39;;;;;;;36.47;17.53;;;;;;;;;;10124835;29;20037;-83
2024/01/06 20:12:40;;;;;;;38.13;18.87;;;;;;;;;;10116935;29;20047;-81
2024/01/06 20:17:42;;;;;;;43.63;20.63;;;;;;;;;;10120001;29;20572;-81
2024/01/06 20:22:43;;;;;;;42.33;19.43;;;;;;;;;;10141151;29;20057;-82
2024/01/06 20:27:45;;;;;;;40.93;19.17;;;;;;;;;;10103467;29;20036;-82
2024/01/06 20:32:46;;;;;;;37.53;19.50;;;;;;;;;;10108055;29;20037;-81
2024/01/06 20:37:47;;;;;;;36.70;17.43;;;;;;;;;;10124896;29;20500;-81
2024/01/06 20:42:48;;;;;;;41.67;19.77;;;;;;;;;;10120057;29;20037;-80
2024/01/06 20:47:51;;;;;;;38.10;18.17;;;;;;;;;;10132116;29;20440;-82
2024/01/06 20:52:52;;;;;;;39.80;18.27;;;;;;;;;;10140425;29;20563;-80
2024/01/06 20:57:53;;;;;;;36.93;19.07;;;;;;;;;;10143813;29;20060;-80
2024/01/06 21:02:54;;;;;;;36.13;16.10;;;;;;;;;;10132953;29;20036;-83
2024/01/06 21:07:55;;;;;;;36.47;17.77;;;;;;;;;;10123648;29;20037;-80
2024/01/06 21:12:56;;;;;;;37.53;18.20;;;;;;;;;;10110958;29;20131;-81
2024/01/06 21:17:57;;;;;;;37.10;17.27;;;;;;;;;;10113704;29;20051;-81
2024/01/06 21:22:58;;;;;;;33.43;17.40;;;;;;;;;;10113022;29;20052;-80
2024/01/06 21:27:59;;;;;;;36.27;17.83;;;;;;;;;;10131767;29;20064;-80
2024/01/06 21:33:00;;;;;;;38.60;19.40;;;;;;;;;;10128281;29;20515;-80
2024/01/06 21:38:12;;;;;;;33.57;17.23;;;;;;;;;;10122270;29;20076;-82
2024/01/06 21:43:13;;;;;;;38.63;17.90;;;;;;;;;;10114809;29;20111;-80
2024/01/06 21:48:14;;;;;;;36.00;17.93;;;;;;;;;;10121315;29;20059;-81
2024/01/06 21:53:15;;;;;;;39.77;20.03;;;;;;;;;;10111871;29;20529;-82
2024/01/06 21:58:16;;;;;;;36.37;18.33;;;;;;;;;;10128850;29;20088;-81
2024/01/06 22:03:18;;;;;;;38.37;18.17;;;;;;;;;;10129991;29;20055;-81
2024/01/06 22:08:19;;;;;;;40.23;18.57;;;;;;;;;;10125090;29;20041;-81
2024/01/06 22:13:20;;;;;;;39.87;18.93;;;;;;;;;;10090280;29;20123;-81
2024/01/06 22:18:22;;;;;;;37.00;18.50;;;;;;;;;;10101867;29;20151;-80
2024/01/06 22:23:23;;;;;;;37.50;19.03;;;;;;;;;;10102027;29;20045;-82
2024/01/06 22:28:25;;;;;;;38.67;18.43;;;;;;;;;;10107025;29;20041;-80
2024/01/06 22:33:26;;;;;;;36.87;17.57;;;;;;;;;;10109695;29;20104;-80
2024/01/06 22:38:27;;;;;;;33.10;16.67;;;;;;;;;;10122752;29;20104;-80
2024/01/06 22:43:28;;;;;;;37.33;17.30;;;;;;;;;;10128305;29;20044;-80
2024/01/06 22:48:29;;;;;;;32.23;16.27;;;;;;;;;;10108481;29;20056;-81
2024/01/06 22:53:30;;;;;;;33.47;16.47;;;;;;;;;;10117565;29;20049;-80
2024/01/06 22:58:32;;;;;;;35.90;16.03;;;;;;;;;;10117021;29;20049;-81
2024/01/06 23:03:34;;;;;;;37.90;17.47;;;;;;;;;;10109384;29;20068;-81
2024/01/06 23:08:44;;;;;;;39.87;18.50;;;;;;;;;;10107301;29;20032;-80
2024/01/06 23:13:45;;;;;;;31.63;14.73;;;;;;;;;;10114818;29;20044;-80
2024/01/06 23:18:46;;;;;;;33.80;15.80;;;;;;;;;;10117587;29;20426;-80
2024/01/06 23:23:47;;;;;;;36.00;15.37;;;;;;;;;;10115887;29;20116;-79
2024/01/06 23:28:49;;;;;;;34.63;16.80;;;;;;;;;;10113902;29;20048;-80
2024/01/06 23:33:50;;;;;;;35.40;16.33;;;;;;;;;;10097090;29;20560;-80
2024/01/06 23:38:51;;;;;;;34.23;15.43;;;;;;;;;;10123998;29;20044;-80
2024/01/06 23:43:58;;;;;;;27.43;14.33;;;;;;;;;;10091035;29;20040;-80
2024/01/06 23:48:59;;;;;;;33.00;15.87;;;;;;;;;;10130150;29;20044;-79
2024/01/06 23:54:00;;;;;;;31.20;15.23;;;;;;;;;;10117340;29;20028;-81
2024/01/06 23:59:01;;;;;;;30.83;14.70;;;;;;;;;;10124336;29;20059;-81
